sensor_id;sensor_type;location;lat;lon;timestamp;pressure;altitude;pressure_sealevel;temperature;humidity
30343;BME280;17145;49.902;8.680;'2023-06-26 01:59:01';99900;;;22;40
30343;BME280;17145;49.902;8.680;'2023-06-26 02:01:28';99900;;;22;40
30343;BME280;17145;49.902;8.680;'2023-06-26 02:03:56';99900;;;22;40
30343;BME280;17145;49.902;8.680;'2023-06-26 02:06:24';99900;;;22;40
30343;BME280;17145;49.902;8.680;'2023-06-26 02:08:52';99900;;;22;40
30343;BME280;17145;49.902;8.680;'2023-06-26 02:11:20';99890;;;22;40
30343;BME280;17145;49.902;8.680;'2023-06-26 02:13:48';99890;;;22;40
30343;BME280;17145;49.902;8.680;'2023-06-26 02:16:15';99900;;;22;40
30343;BME280;17145;49.902;8.680;'2023-06-26 02:18:43';99890;;;21;40
30343;BME280;17145;49.902;8.680;'2023-06-26 02:21:10';99900;;;22;40
30343;BME280;17145;49.902;8.680;'2023-06-26 02:23:38';99900;;;22;40
30343;BME280;17145;49.902;8.680;'2023-06-26 02:26:05';99900;;;22;40
30343;BME280;17145;49.902;8.680;'2023-06-26 02:28:33';99900;;;22;40
30343;BME280;17145;49.902;8.680;'2023-06-26 02:31:00';99900;;;21;40
30343;BME280;17145;49.902;8.680;'2023-06-26 02:33:27';99900;;;22;40
30343;BME280;17145;49.902;8.680;'2023-06-26 02:35:55';99900;;;21;40
30343;BME280;17145;49.902;8.680;'2023-06-26 02:38:22';99900;;;21;40
30343;BME280;17145;49.902;8.680;'2023-06-26 02:40:50';99900;;;22;40
30343;BME280;17145;49.902;8.680;'2023-06-26 02:43:18';99910;;;22;41
30343;BME280;17145;49.902;8.680;'2023-06-26 02:45:45';99910;;;21;41
30343;BME280;17145;49.902;8.680;'2023-06-26 02:48:13';99910;;;21;41
30343;BME280;17145;49.902;8.680;'2023-06-26 02:50:42';99910;;;21;41
30343;BME280;17145;49.902;8.680;'2023-06-26 02:53:10';99910;;;21;41
30343;BME280;17145;49.902;8.680;'2023-06-26 02:55:38';99900;;;21;42
30343;BME280;17145;49.902;8.680;'2023-06-26 02:58:05';99900;;;21;42
30343;BME280;17145;49.902;8.680;'2023-06-26 03:00:33';99900;;;21;42
30343;BME280;17145;49.902;8.680;'2023-06-26 03:03:01';99900;;;21;41
30343;BME280;17145;49.902;8.680;'2023-06-26 03:05:30';99900;;;21;41
30343;BME280;17145;49.902;8.680;'2023-06-26 03:07:58';99900;;;21;41
30343;BME280;17145;49.902;8.680;'2023-06-26 03:10:26';99900;;;21;41
30343;BME280;17145;49.902;8.680;'2023-06-26 03:12:53';99890;;;21;41
30343;BME280;17145;49.902;8.680;'2023-06-26 03:15:21';99890;;;21;41
30343;BME280;17145;49.902;8.680;'2023-06-26 03:17:50';99890;;;21;41
30343;BME280;17145;49.902;8.680;'2023-06-26 03:20:19';99890;;;21;41
30343;BME280;17145;49.902;8.680;'2023-06-26 03:22:58';99880;;;21;42
30343;BME280;17145;49.902;8.680;'2023-06-26 03:25:35';99880;;;21;42
30343;BME280;17145;49.902;8.680;'2023-06-26 03:28:04';99880;;;20;42
30343;BME280;17145;49.902;8.680;'2023-06-26 03:30:33';99880;;;20;42
30343;BME280;17145;49.902;8.680;'2023-06-26 03:33:02';99880;;;20;42
30343;BME280;17145;49.902;8.680;'2023-06-26 03:38:10';99870;;;20;42
30343;BME280;17145;49.902;8.680;'2023-06-26 03:40:38';99870;;;20;42
30343;BME280;17145;49.902;8.680;'2023-06-26 03:43:11';99870;;;20;43
30343;BME280;17145;49.902;8.680;'2023-06-26 03:45:39';99870;;;20;43
30343;BME280;17145;49.902;8.680;'2023-06-26 03:48:11';99870;;;20;43
30343;BME280;17145;49.902;8.680;'2023-06-26 03:50:40';99880;;;20;43
30343;BME280;17145;49.902;8.680;'2023-06-26 03:53:12';99870;;;20;43
30343;BME280;17145;49.902;8.680;'2023-06-26 03:55:45';99870;;;20;43
30343;BME280;17145;49.902;8.680;'2023-06-26 03:58:14';99870;;;20;43
30343;BME280;17145;49.902;8.680;'2023-06-26 04:00:42';99860;;;20;43
30343;BME280;17145;49.902;8.680;'2023-06-26 04:03:10';99870;;;20;43
30343;BME280;17145;49.902;8.680;'2023-06-26 04:05:38';99870;;;20;43
30343;BME280;17145;49.902;8.680;'2023-06-26 04:08:08';99860;;;20;43
30343;BME280;17145;49.902;8.680;'2023-06-26 04:10:36';99860;;;20;43
30343;BME280;17145;49.902;8.680;'2023-06-26 04:13:04';99870;;;20;43
30343;BME280;17145;49.902;8.680;'2023-06-26 04:15:31';99870;;;20;43
30343;BME280;17145;49.902;8.680;'2023-06-26 04:17:59';99870;;;20;44
30343;BME280;17145;49.902;8.680;'2023-06-26 04:20:26';99870;;;20;44
30343;BME280;17145;49.902;8.680;'2023-06-26 04:22:53';99870;;;20;44
30343;BME280;17145;49.902;8.680;'2023-06-26 04:25:22';99870;;;20;44
30343;BME280;17145;49.902;8.680;'2023-06-26 04:27:49';99870;;;20;44
30343;BME280;17145;49.902;8.680;'2023-06-26 04:30:16';99870;;;20;44
30343;BME280;17145;49.902;8.680;'2023-06-26 04:32:44';99870;;;19;44
30343;BME280;17145;49.902;8.680;'2023-06-26 04:35:11';99870;;;20;44
30343;BME280;17145;49.902;8.680;'2023-06-26 04:37:38';99860;;;20;44
30343;BME280;17145;49.902;8.680;'2023-06-26 04:40:06';99860;;;20;44
30343;BME280;17145;49.902;8.680;'2023-06-26 04:42:35';99860;;;19;44
30343;BME280;17145;49.902;8.680;'2023-06-26 04:45:02';99860;;;19;44
30343;BME280;17145;49.902;8.680;'2023-06-26 04:47:30';99860;;;19;44
30343;BME280;17145;49.902;8.680;'2023-06-26 04:49:57';99860;;;19;44
30343;BME280;17145;49.902;8.680;'2023-06-26 04:52:25';99860;;;19;44
30343;BME280;17145;49.902;8.680;'2023-06-26 04:54:52';99860;;;20;44
30343;BME280;17145;49.902;8.680;'2023-06-26 04:57:20';99860;;;19;45
30343;BME280;17145;49.902;8.680;'2023-06-26 04:59:47';99860;;;19;45
30343;BME280;17145;49.902;8.680;'2023-06-26 05:02:15';99860;;;19;45
30343;BME280;17145;49.902;8.680;'2023-06-26 05:04:42';99860;;;19;45
30343;BME280;17145;49.902;8.680;'2023-06-26 05:07:10';99860;;;19;45
30343;BME280;17145;49.902;8.680;'2023-06-26 05:09:37';99860;;;19;45
30343;BME280;17145;49.902;8.680;'2023-06-26 05:12:05';99870;;;19;45
30343;BME280;17145;49.902;8.680;'2023-06-26 05:14:33';99870;;;19;45
30343;BME280;17145;49.902;8.680;'2023-06-26 05:17:00';99870;;;19;45
30343;BME280;17145;49.902;8.680;'2023-06-26 05:19:28';99870;;;19;45
30343;BME280;17145;49.902;8.680;'2023-06-26 05:21:55';99870;;;19;45
30343;BME280;17145;49.902;8.680;'2023-06-26 05:24:22';99870;;;19;45
30343;BME280;17145;49.902;8.680;'2023-06-26 05:26:50';99870;;;19;45
30343;BME280;17145;49.902;8.680;'2023-06-26 05:29:17';99870;;;19;46
30343;BME280;17145;49.902;8.680;'2023-06-26 05:31:44';99870;;;19;46
30343;BME280;17145;49.902;8.680;'2023-06-26 05:34:12';99870;;;19;46
30343;BME280;17145;49.902;8.680;'2023-06-26 05:36:39';99870;;;19;46
30343;BME280;17145;49.902;8.680;'2023-06-26 05:39:07';99870;;;19;46
30343;BME280;17145;49.902;8.680;'2023-06-26 05:41:35';99880;;;19;46
30343;BME280;17145;49.902;8.680;'2023-06-26 05:44:03';99880;;;19;46
30343;BME280;17145;49.902;8.680;'2023-06-26 05:46:31';99880;;;19;46
30343;BME280;17145;49.902;8.680;'2023-06-26 05:48:58';99870;;;19;46
30343;BME280;17145;49.902;8.680;'2023-06-26 05:51:26';99870;;;19;46
30343;BME280;17145;49.902;8.680;'2023-06-26 05:53:53';99870;;;19;46
30343;BME280;17145;49.902;8.680;'2023-06-26 05:56:21';99870;;;19;46
30343;BME280;17145;49.902;8.680;'2023-06-26 05:58:48';99880;;;19;46
30343;BME280;17145;49.902;8.680;'2023-06-26 06:01:15';99880;;;19;46
30343;BME280;17145;49.902;8.680;'2023-06-26 06:03:43';99880;;;19;46
30343;BME280;17145;49.902;8.680;'2023-06-26 06:06:10';99880;;;19;46
30343;BME280;17145;49.902;8.680;'2023-06-26 06:08:38';99880;;;19;46
30343;BME280;17145;49.902;8.680;'2023-06-26 06:11:05';99880;;;19;46
30343;BME280;17145;49.902;8.680;'2023-06-26 06:13:32';99880;;;19;47
30343;BME280;17145;49.902;8.680;'2023-06-26 06:16:00';99880;;;19;47
30343;BME280;17145;49.902;8.680;'2023-06-26 06:18:27';99880;;;19;47
30343;BME280;17145;49.902;8.680;'2023-06-26 06:21:06';99890;;;19;47
30343;BME280;17145;49.902;8.680;'2023-06-26 06:23:33';99890;;;19;47
30343;BME280;17145;49.902;8.680;'2023-06-26 06:26:01';99890;;;19;47
30343;BME280;17145;49.902;8.680;'2023-06-26 06:28:29';99880;;;19;47
30343;BME280;17145;49.902;8.680;'2023-06-26 06:30:56';99880;;;19;47
30343;BME280;17145;49.902;8.680;'2023-06-26 06:33:25';99880;;;19;47
30343;BME280;17145;49.902;8.680;'2023-06-26 06:35:53';99880;;;19;47
30343;BME280;17145;49.902;8.680;'2023-06-26 06:38:21';99880;;;19;47
30343;BME280;17145;49.902;8.680;'2023-06-26 06:40:49';99880;;;19;47
30343;BME280;17145;49.902;8.680;'2023-06-26 06:43:16';99880;;;19;47
30343;BME280;17145;49.902;8.680;'2023-06-26 06:45:43';99870;;;19;48
30343;BME280;17145;49.902;8.680;'2023-06-26 06:48:11';99870;;;19;48
30343;BME280;17145;49.902;8.680;'2023-06-26 06:50:39';99880;;;19;48
30343;BME280;17145;49.902;8.680;'2023-06-26 06:53:07';99880;;;20;48
30343;BME280;17145;49.902;8.680;'2023-06-26 06:55:35';99880;;;20;48
30343;BME280;17145;49.902;8.680;'2023-06-26 06:58:02';99880;;;20;47
30343;BME280;17145;49.902;8.680;'2023-06-26 07:00:29';99870;;;20;47
30343;BME280;17145;49.902;8.680;'2023-06-26 07:02:57';99870;;;20;47
30343;BME280;17145;49.902;8.680;'2023-06-26 07:05:24';99870;;;20;47
30343;BME280;17145;49.902;8.680;'2023-06-26 07:07:53';99870;;;20;47
30343;BME280;17145;49.902;8.680;'2023-06-26 07:10:21';99870;;;20;46
30343;BME280;17145;49.902;8.680;'2023-06-26 07:12:48';99870;;;20;46
30343;BME280;17145;49.902;8.680;'2023-06-26 07:15:16';99870;;;21;46
30343;BME280;17145;49.902;8.680;'2023-06-26 07:17:43';99870;;;21;44
30343;BME280;17145;49.902;8.680;'2023-06-26 07:20:11';99880;;;21;45
30343;BME280;17145;49.902;8.680;'2023-06-26 07:22:39';99880;;;21;44
30343;BME280;17145;49.902;8.680;'2023-06-26 07:25:09';99880;;;21;43
30343;BME280;17145;49.902;8.680;'2023-06-26 07:27:37';99870;;;21;42
30343;BME280;17145;49.902;8.680;'2023-06-26 07:30:06';99870;;;21;41
30343;BME280;17145;49.902;8.680;'2023-06-26 07:32:35';99870;;;21;40
30343;BME280;17145;49.902;8.680;'2023-06-26 07:35:03';99860;;;21;40
30343;BME280;17145;49.902;8.680;'2023-06-26 07:37:31';99860;;;22;40
30343;BME280;17145;49.902;8.680;'2023-06-26 07:39:59';99860;;;22;40
30343;BME280;17145;49.902;8.680;'2023-06-26 07:42:27';99860;;;22;39
30343;BME280;17145;49.902;8.680;'2023-06-26 07:44:55';99860;;;22;40
30343;BME280;17145;49.902;8.680;'2023-06-26 07:47:22';99870;;;22;39
30343;BME280;17145;49.902;8.680;'2023-06-26 07:49:50';99870;;;22;39
30343;BME280;17145;49.902;8.680;'2023-06-26 07:52:18';99870;;;22;38
30343;BME280;17145;49.902;8.680;'2023-06-26 07:54:46';99870;;;22;38
30343;BME280;17145;49.902;8.680;'2023-06-26 07:57:15';99880;;;22;38
30343;BME280;17145;49.902;8.680;'2023-06-26 07:59:43';99880;;;22;38
30343;BME280;17145;49.902;8.680;'2023-06-26 08:02:11';99880;;;22;38
30343;BME280;17145;49.902;8.680;'2023-06-26 08:04:39';99880;;;22;38
30343;BME280;17145;49.902;8.680;'2023-06-26 08:07:07';99870;;;22;38
30343;BME280;17145;49.902;8.680;'2023-06-26 08:09:35';99870;;;22;38
30343;BME280;17145;49.902;8.680;'2023-06-26 08:12:02';99870;;;23;38
30343;BME280;17145;49.902;8.680;'2023-06-26 08:14:30';99860;;;23;38
30343;BME280;17145;49.902;8.680;'2023-06-26 08:16:57';99870;;;22;38
30343;BME280;17145;49.902;8.680;'2023-06-26 08:19:24';99870;;;23;37
30343;BME280;17145;49.902;8.680;'2023-06-26 08:21:52';99870;;;23;38
30343;BME280;17145;49.902;8.680;'2023-06-26 08:24:19';99870;;;23;37
30343;BME280;17145;49.902;8.680;'2023-06-26 08:26:47';99870;;;23;38
30343;BME280;17145;49.902;8.680;'2023-06-26 08:29:14';99870;;;23;38
30343;BME280;17145;49.902;8.680;'2023-06-26 08:31:42';99870;;;23;37
30343;BME280;17145;49.902;8.680;'2023-06-26 08:34:09';99860;;;23;37
30343;BME280;17145;49.902;8.680;'2023-06-26 08:36:37';99870;;;23;37
30343;BME280;17145;49.902;8.680;'2023-06-26 08:39:04';99870;;;23;37
30343;BME280;17145;49.902;8.680;'2023-06-26 08:41:31';99860;;;23;37
30343;BME280;17145;49.902;8.680;'2023-06-26 08:43:59';99860;;;24;36
30343;BME280;17145;49.902;8.680;'2023-06-26 08:46:26';99860;;;24;36
30343;BME280;17145;49.902;8.680;'2023-06-26 08:48:53';99850;;;24;36
30343;BME280;17145;49.902;8.680;'2023-06-26 08:51:21';99840;;;24;35
30343;BME280;17145;49.902;8.680;'2023-06-26 08:53:48';99840;;;24;35
30343;BME280;17145;49.902;8.680;'2023-06-26 08:56:16';99840;;;24;35
30343;BME280;17145;49.902;8.680;'2023-06-26 08:58:43';99840;;;24;36
30343;BME280;17145;49.902;8.680;'2023-06-26 09:01:11';99850;;;24;36
30343;BME280;17145;49.902;8.680;'2023-06-26 09:03:38';99850;;;24;36
30343;BME280;17145;49.902;8.680;'2023-06-26 09:06:05';99850;;;24;36
30343;BME280;17145;49.902;8.680;'2023-06-26 09:08:33';99850;;;24;36
30343;BME280;17145;49.902;8.680;'2023-06-26 09:11:01';99850;;;24;35
30343;BME280;17145;49.902;8.680;'2023-06-26 09:13:28';99850;;;24;35
30343;BME280;17145;49.902;8.680;'2023-06-26 09:15:55';99850;;;24;35
30343;BME280;17145;49.902;8.680;'2023-06-26 09:18:23';99840;;;24;35
30343;BME280;17145;49.902;8.680;'2023-06-26 09:20:50';99840;;;24;35
30343;BME280;17145;49.902;8.680;'2023-06-26 09:23:18';99840;;;24;35
30343;BME280;17145;49.902;8.680;'2023-06-26 09:25:45';99840;;;25;34
30343;BME280;17145;49.902;8.680;'2023-06-26 09:28:13';99840;;;25;33
30343;BME280;17145;49.902;8.680;'2023-06-26 09:30:40';99840;;;24;33
30343;BME280;17145;49.902;8.680;'2023-06-26 09:33:07';99840;;;25;33
30343;BME280;17145;49.902;8.680;'2023-06-26 09:35:35';99840;;;25;32
30343;BME280;17145;49.902;8.680;'2023-06-26 09:38:02';99840;;;25;32
30343;BME280;17145;49.902;8.680;'2023-06-26 09:40:30';99850;;;25;32
30343;BME280;17145;49.902;8.680;'2023-06-26 09:42:57';99850;;;25;32
30343;BME280;17145;49.902;8.680;'2023-06-26 09:45:25';99850;;;25;32
30343;BME280;17145;49.902;8.680;'2023-06-26 09:47:52';99860;;;25;32
30343;BME280;17145;49.902;8.680;'2023-06-26 09:50:20';99860;;;25;32
30343;BME280;17145;49.902;8.680;'2023-06-26 09:52:47';99860;;;25;32
30343;BME280;17145;49.902;8.680;'2023-06-26 09:55:15';99860;;;25;32
30343;BME280;17145;49.902;8.680;'2023-06-26 09:57:42';99860;;;25;32
30343;BME280;17145;49.902;8.680;'2023-06-26 10:00:11';99870;;;25;33
30343;BME280;17145;49.902;8.680;'2023-06-26 10:02:38';99870;;;25;32
30343;BME280;17145;49.902;8.680;'2023-06-26 10:05:06';99870;;;25;33
30343;BME280;17145;49.902;8.680;'2023-06-26 10:07:33';99870;;;25;33
30343;BME280;17145;49.902;8.680;'2023-06-26 10:10:00';99870;;;25;33
30343;BME280;17145;49.902;8.680;'2023-06-26 10:12:28';99860;;;25;33
30343;BME280;17145;49.902;8.680;'2023-06-26 10:14:55';99860;;;25;33
30343;BME280;17145;49.902;8.680;'2023-06-26 10:17:22';99870;;;25;33
30343;BME280;17145;49.902;8.680;'2023-06-26 10:19:50';99870;;;25;33
30343;BME280;17145;49.902;8.680;'2023-06-26 10:22:17';99870;;;26;33
30343;BME280;17145;49.902;8.680;'2023-06-26 10:24:44';99880;;;26;33
30343;BME280;17145;49.902;8.680;'2023-06-26 10:27:12';99870;;;26;32
30343;BME280;17145;49.902;8.680;'2023-06-26 10:29:39';99860;;;26;32
30343;BME280;17145;49.902;8.680;'2023-06-26 10:32:07';99860;;;26;32
30343;BME280;17145;49.902;8.680;'2023-06-26 10:34:34';99870;;;25;32
30343;BME280;17145;49.902;8.680;'2023-06-26 10:37:01';99870;;;26;32
30343;BME280;17145;49.902;8.680;'2023-06-26 10:39:29';99880;;;26;32
30343;BME280;17145;49.902;8.680;'2023-06-26 10:41:56';99880;;;26;33
30343;BME280;17145;49.902;8.680;'2023-06-26 10:44:24';99890;;;26;32
30343;BME280;17145;49.902;8.680;'2023-06-26 10:46:51';99880;;;26;32
30343;BME280;17145;49.902;8.680;'2023-06-26 10:49:25';99880;;;26;32
30343;BME280;17145;49.902;8.680;'2023-06-26 10:51:57';99880;;;26;32
30343;BME280;17145;49.902;8.680;'2023-06-26 10:54:30';99880;;;26;32
30343;BME280;17145;49.902;8.680;'2023-06-26 10:56:59';99880;;;26;31
30343;BME280;17145;49.902;8.680;'2023-06-26 10:59:27';99880;;;26;31
30343;BME280;17145;49.902;8.680;'2023-06-26 11:01:55';99880;;;26;31
30343;BME280;17145;49.902;8.680;'2023-06-26 11:04:23';99880;;;26;32
30343;BME280;17145;49.902;8.680;'2023-06-26 11:06:50';99880;;;26;32
30343;BME280;17145;49.902;8.680;'2023-06-26 11:09:17';99880;;;26;32
30343;BME280;17145;49.902;8.680;'2023-06-26 11:11:45';99880;;;26;32
30343;BME280;17145;49.902;8.680;'2023-06-26 11:14:13';99880;;;26;31
30343;BME280;17145;49.902;8.680;'2023-06-26 11:16:41';99880;;;27;31
30343;BME280;17145;49.902;8.680;'2023-06-26 11:19:10';99880;;;27;31
30343;BME280;17145;49.902;8.680;'2023-06-26 11:21:38';99880;;;27;31
30343;BME280;17145;49.902;8.680;'2023-06-26 11:24:07';99870;;;27;31
30343;BME280;17145;49.902;8.680;'2023-06-26 11:26:35';99870;;;27;31
30343;BME280;17145;49.902;8.680;'2023-06-26 11:29:04';99870;;;27;30
30343;BME280;17145;49.902;8.680;'2023-06-26 11:31:32';99880;;;27;30
30343;BME280;17145;49.902;8.680;'2023-06-26 11:34:09';99880;;;27;30
30343;BME280;17145;49.902;8.680;'2023-06-26 11:36:37';99900;;;27;29
30343;BME280;17145;49.902;8.680;'2023-06-26 11:39:06';99890;;;27;29
30343;BME280;17145;49.902;8.680;'2023-06-26 11:41:33';99890;;;28;28
30343;BME280;17145;49.902;8.680;'2023-06-26 11:44:02';99890;;;28;29
30343;BME280;17145;49.902;8.680;'2023-06-26 11:46:30';99880;;;27;29
30343;BME280;17145;49.902;8.680;'2023-06-26 11:49:00';99880;;;27;29
30343;BME280;17145;49.902;8.680;'2023-06-26 11:51:29';99880;;;27;29
30343;BME280;17145;49.902;8.680;'2023-06-26 11:53:57';99880;;;28;29
30343;BME280;17145;49.902;8.680;'2023-06-26 11:56:24';99880;;;27;30
30343;BME280;17145;49.902;8.680;'2023-06-26 11:58:55';99870;;;28;30
30343;BME280;17145;49.902;8.680;'2023-06-26 12:01:23';99870;;;28;29
30343;BME280;17145;49.902;8.680;'2023-06-26 12:03:50';99870;;;28;28
30343;BME280;17145;49.902;8.680;'2023-06-26 12:06:22';99870;;;29;29
30343;BME280;17145;49.902;8.680;'2023-06-26 12:08:50';99870;;;28;29
30343;BME280;17145;49.902;8.680;'2023-06-26 12:11:22';99870;;;27;29
30343;BME280;17145;49.902;8.680;'2023-06-26 12:13:53';99880;;;28;29
30343;BME280;17145;49.902;8.680;'2023-06-26 12:16:26';99880;;;28;29
30343;BME280;17145;49.902;8.680;'2023-06-26 12:19:00';99880;;;28;29
30343;BME280;17145;49.902;8.680;'2023-06-26 12:21:31';99880;;;28;29
30343;BME280;17145;49.902;8.680;'2023-06-26 12:23:59';99880;;;28;30
30343;BME280;17145;49.902;8.680;'2023-06-26 12:26:28';99880;;;28;29
30343;BME280;17145;49.902;8.680;'2023-06-26 12:28:57';99880;;;28;29
30343;BME280;17145;49.902;8.680;'2023-06-26 12:31:28';99890;;;28;29
30343;BME280;17145;49.902;8.680;'2023-06-26 12:33:56';99880;;;28;30
30343;BME280;17145;49.902;8.680;'2023-06-26 12:36:30';99880;;;28;30
30343;BME280;17145;49.902;8.680;'2023-06-26 12:39:03';99890;;;28;29
30343;BME280;17145;49.902;8.680;'2023-06-26 12:41:37';99890;;;29;29
30343;BME280;17145;49.902;8.680;'2023-06-26 12:44:10';99880;;;28;30
30343;BME280;17145;49.902;8.680;'2023-06-26 12:46:49';99900;;;28;31
30343;BME280;17145;49.902;8.680;'2023-06-26 12:49:17';99890;;;28;29
30343;BME280;17145;49.902;8.680;'2023-06-26 12:51:49';99890;;;29;29
30343;BME280;17145;49.902;8.680;'2023-06-26 12:54:18';99890;;;28;29
30343;BME280;17145;49.902;8.680;'2023-06-26 12:56:48';99890;;;28;29
30343;BME280;17145;49.902;8.680;'2023-06-26 12:59:18';99890;;;28;30
30343;BME280;17145;49.902;8.680;'2023-06-26 13:07:12';99890;;;29;29
30343;BME280;17145;49.902;8.680;'2023-06-26 13:09:55';99890;;;29;28
30343;BME280;17145;49.902;8.680;'2023-06-26 13:12:36';99890;;;29;28
30343;BME280;17145;49.902;8.680;'2023-06-26 13:15:07';99890;;;29;28
30343;BME280;17145;49.902;8.680;'2023-06-26 13:17:35';99890;;;29;28
30343;BME280;17145;49.902;8.680;'2023-06-26 13:20:03';99880;;;29;27
30343;BME280;17145;49.902;8.680;'2023-06-26 13:22:34';99880;;;30;28
30343;BME280;17145;49.902;8.680;'2023-06-26 13:25:01';99880;;;30;28
30343;BME280;17145;49.902;8.680;'2023-06-26 13:27:31';99880;;;30;27
30343;BME280;17145;49.902;8.680;'2023-06-26 13:29:59';99880;;;30;27
30343;BME280;17145;49.902;8.680;'2023-06-26 13:32:27';99880;;;30;27
30343;BME280;17145;49.902;8.680;'2023-06-26 13:34:54';99880;;;30;27
30343;BME280;17145;49.902;8.680;'2023-06-26 13:37:22';99880;;;30;27
30343;BME280;17145;49.902;8.680;'2023-06-26 13:39:49';99880;;;30;26
30343;BME280;17145;49.902;8.680;'2023-06-26 13:42:17';99870;;;29;26
30343;BME280;17145;49.902;8.680;'2023-06-26 13:44:45';99880;;;30;27
30343;BME280;17145;49.902;8.680;'2023-06-26 13:47:14';99890;;;29;27
30343;BME280;17145;49.902;8.680;'2023-06-26 13:49:43';99890;;;29;27
30343;BME280;17145;49.902;8.680;'2023-06-26 13:52:10';99890;;;29;27
30343;BME280;17145;49.902;8.680;'2023-06-26 13:54:38';99880;;;29;27
30343;BME280;17145;49.902;8.680;'2023-06-26 13:57:05';99900;;;28;27
30343;BME280;17145;49.902;8.680;'2023-06-26 13:59:35';99890;;;29;27
30343;BME280;17145;49.902;8.680;'2023-06-26 14:02:06';99890;;;29;26
30343;BME280;17145;49.902;8.680;'2023-06-26 14:04:36';99910;;;30;26
30343;BME280;17145;49.902;8.680;'2023-06-26 14:07:05';99910;;;29;26
30343;BME280;17145;49.902;8.680;'2023-06-26 14:09:33';99900;;;30;25
30343;BME280;17145;49.902;8.680;'2023-06-26 14:12:01';99900;;;30;25
30343;BME280;17145;49.902;8.680;'2023-06-26 14:14:30';99900;;;30;24
30343;BME280;17145;49.902;8.680;'2023-06-26 14:17:04';99880;;;30;24
30343;BME280;17145;49.902;8.680;'2023-06-26 14:19:33';99890;;;30;23
30343;BME280;17145;49.902;8.680;'2023-06-26 14:22:06';99900;;;30;24
30343;BME280;17145;49.902;8.680;'2023-06-26 14:24:36';99900;;;30;23
30343;BME280;17145;49.902;8.680;'2023-06-26 14:27:08';99890;;;31;22
30343;BME280;17145;49.902;8.680;'2023-06-26 14:29:38';99900;;;31;22
30343;BME280;17145;49.902;8.680;'2023-06-26 14:32:09';99890;;;31;22
30343;BME280;17145;49.902;8.680;'2023-06-26 14:34:38';99890;;;31;22
30343;BME280;17145;49.902;8.680;'2023-06-26 14:37:08';99890;;;31;22
30343;BME280;17145;49.902;8.680;'2023-06-26 14:39:46';99900;;;31;22
30343;BME280;17145;49.902;8.680;'2023-06-26 14:42:15';99890;;;31;21
30343;BME280;17145;49.902;8.680;'2023-06-26 14:44:42';99890;;;31;22
30343;BME280;17145;49.902;8.680;'2023-06-26 14:47:10';99890;;;31;22
30343;BME280;17145;49.902;8.680;'2023-06-26 14:49:39';99890;;;31;22
30343;BME280;17145;49.902;8.680;'2023-06-26 14:52:10';99890;;;31;22
30343;BME280;17145;49.902;8.680;'2023-06-26 14:54:39';99880;;;32;22
30343;BME280;17145;49.902;8.680;'2023-06-26 14:57:07';99880;;;32;21
30343;BME280;17145;49.902;8.680;'2023-06-26 14:59:37';99880;;;31;21
30343;BME280;17145;49.902;8.680;'2023-06-26 15:02:05';99880;;;32;21
30343;BME280;17145;49.902;8.680;'2023-06-26 15:04:33';99880;;;32;21
30343;BME280;17145;49.902;8.680;'2023-06-26 15:07:00';99890;;;31;21
30343;BME280;17145;49.902;8.680;'2023-06-26 15:09:33';99900;;;31;20
30343;BME280;17145;49.902;8.680;'2023-06-26 15:12:00';99880;;;31;20
30343;BME280;17145;49.902;8.680;'2023-06-26 15:14:28';99880;;;30;20
30343;BME280;17145;49.902;8.680;'2023-06-26 15:16:55';99880;;;31;20
30343;BME280;17145;49.902;8.680;'2023-06-26 15:19:29';99880;;;30;20
30343;BME280;17145;49.902;8.680;'2023-06-26 15:21:57';99880;;;30;20
30343;BME280;17145;49.902;8.680;'2023-06-26 15:24:24';99880;;;30;20
30343;BME280;17145;49.902;8.680;'2023-06-26 15:26:51';99880;;;30;20
30343;BME280;17145;49.902;8.680;'2023-06-26 15:29:19';99890;;;30;20
30343;BME280;17145;49.902;8.680;'2023-06-26 15:31:46';99910;;;30;23
30343;BME280;17145;49.902;8.680;'2023-06-26 15:34:20';99890;;;30;25
30343;BME280;17145;49.902;8.680;'2023-06-26 15:36:48';99900;;;30;26
30343;BME280;17145;49.902;8.680;'2023-06-26 15:39:16';99900;;;30;27
30343;BME280;17145;49.902;8.680;'2023-06-26 15:41:43';99900;;;30;27
30343;BME280;17145;49.902;8.680;'2023-06-26 15:44:10';99900;;;30;27
30343;BME280;17145;49.902;8.680;'2023-06-26 15:46:38';99900;;;30;27
30343;BME280;17145;49.902;8.680;'2023-06-26 15:49:05';99900;;;30;27
30343;BME280;17145;49.902;8.680;'2023-06-26 15:51:32';99910;;;30;27
30343;BME280;17145;49.902;8.680;'2023-06-26 15:54:00';99910;;;30;27
30343;BME280;17145;49.902;8.680;'2023-06-26 15:56:27';99910;;;30;27
30343;BME280;17145;49.902;8.680;'2023-06-26 15:58:54';99920;;;30;27
30343;BME280;17145;49.902;8.680;'2023-06-26 16:01:22';99900;;;30;27
30343;BME280;17145;49.902;8.680;'2023-06-26 16:03:49';99920;;;30;27
30343;BME280;17145;49.902;8.680;'2023-06-26 16:06:16';99920;;;29;27
30343;BME280;17145;49.902;8.680;'2023-06-26 16:08:44';99920;;;29;28
30343;BME280;17145;49.902;8.680;'2023-06-26 16:11:11';99920;;;29;28
30343;BME280;17145;49.902;8.680;'2023-06-26 16:13:39';99920;;;30;28
30343;BME280;17145;49.902;8.680;'2023-06-26 16:16:07';99920;;;30;27
30343;BME280;17145;49.902;8.680;'2023-06-26 16:18:34';99920;;;30;27
30343;BME280;17145;49.902;8.680;'2023-06-26 16:21:01';99920;;;30;27
30343;BME280;17145;49.902;8.680;'2023-06-26 16:23:29';99910;;;30;26
30343;BME280;17145;49.902;8.680;'2023-06-26 16:25:56';99920;;;31;26
30343;BME280;17145;49.902;8.680;'2023-06-26 16:28:24';99930;;;31;25
30343;BME280;17145;49.902;8.680;'2023-06-26 16:30:51';99940;;;30;24
30343;BME280;17145;49.902;8.680;'2023-06-26 16:33:19';99940;;;31;24